createdAt,value
2023-02-05T00:00:54.057Z,2.03
2023-02-05T00:03:21.207Z,0.93
2023-02-05T00:05:48.254Z,0.50
2023-02-05T00:08:15.324Z,0.60
2023-02-05T00:10:42.425Z,0.70
2023-02-05T00:13:09.567Z,0.70
2023-02-05T00:15:40.236Z,0.80
2023-02-05T00:18:07.309Z,0.97
2023-02-05T00:20:34.369Z,0.80
2023-02-05T00:23:01.402Z,0.90
2023-02-05T00:25:28.854Z,0.73
2023-02-05T00:27:55.921Z,0.60
2023-02-05T00:30:23.074Z,1.00
2023-02-05T00:32:50.113Z,0.70
2023-02-05T00:35:17.191Z,0.80
2023-02-05T00:37:44.295Z,0.90
2023-02-05T00:40:11.656Z,0.60
2023-02-05T00:42:38.740Z,0.67
2023-02-05T00:45:05.989Z,0.63
2023-02-05T00:47:33.060Z,0.67
2023-02-05T00:50:00.150Z,0.83
2023-02-05T00:52:27.291Z,1.03
2023-02-05T00:54:54.378Z,0.73
2023-02-05T00:57:24.610Z,1.60
2023-02-05T00:59:54.428Z,1.33
2023-02-05T01:02:23.944Z,1.47
2023-02-05T01:04:51.920Z,1.03
2023-02-05T01:07:21.958Z,0.83
2023-02-05T01:09:49.045Z,0.80
2023-02-05T01:12:16.112Z,0.60
2023-02-05T01:14:43.382Z,0.97
2023-02-05T01:17:10.536Z,0.67
2023-02-05T01:19:37.907Z,0.90
2023-02-05T01:22:05.465Z,0.93
2023-02-05T01:24:32.646Z,0.70
2023-02-05T01:27:00.119Z,0.87
2023-02-05T01:29:29.325Z,0.90
2023-02-05T01:31:56.671Z,0.50
2023-02-05T01:34:23.778Z,0.80
2023-02-05T01:36:50.846Z,0.90
2023-02-05T01:39:17.888Z,0.80
2023-02-05T01:41:45.792Z,0.80
2023-02-05T01:44:22.278Z,0.90
2023-02-05T01:46:49.631Z,0.60
2023-02-05T01:49:20.052Z,1.03
2023-02-05T01:51:48.250Z,0.87
2023-02-05T01:54:16.016Z,0.70
2023-02-05T01:56:49.201Z,0.60
2023-02-05T01:59:18.655Z,0.47
2023-02-05T02:01:45.804Z,0.70
2023-02-05T02:04:14.686Z,0.90
2023-02-05T02:06:41.852Z,0.70
2023-02-05T02:09:09.319Z,0.90
2023-02-05T02:11:38.662Z,0.63
2023-02-05T02:14:06.940Z,0.67
2023-02-05T02:16:35.646Z,0.87
2023-02-05T02:19:05.395Z,0.67
2023-02-05T02:21:44.777Z,0.87
2023-02-05T02:24:30.490Z,1.20
2023-02-05T02:27:00.625Z,0.70
2023-02-05T02:29:53.856Z,0.90
2023-02-05T02:32:35.991Z,0.73
2023-02-05T02:35:06.830Z,0.80
2023-02-05T02:37:40.479Z,0.70
2023-02-05T02:40:10.888Z,1.20
2023-02-05T02:42:43.520Z,1.10
2023-02-05T02:45:13.296Z,0.97
2023-02-05T02:47:43.472Z,0.87
2023-02-05T02:50:13.840Z,0.60
2023-02-05T02:52:42.850Z,0.70
2023-02-05T02:55:11.771Z,1.17
2023-02-05T02:57:40.620Z,0.90
2023-02-05T03:00:12.773Z,0.87
2023-02-05T03:02:41.149Z,0.93
2023-02-05T03:05:12.144Z,1.07
2023-02-05T03:08:00.492Z,0.60
2023-02-05T03:10:27.710Z,0.70
2023-02-05T03:12:55.876Z,0.70
2023-02-05T03:15:23.204Z,1.03
2023-02-05T03:17:51.334Z,0.80
2023-02-05T03:20:18.404Z,0.80
2023-02-05T03:22:45.509Z,0.80
2023-02-05T03:25:12.827Z,0.80
2023-02-05T03:27:39.897Z,0.43
2023-02-05T03:30:07.891Z,0.60
2023-02-05T03:32:39.873Z,0.80
2023-02-05T03:35:17.703Z,0.63
2023-02-05T03:38:17.202Z,0.70
2023-02-05T03:40:52.645Z,0.60
2023-02-05T03:43:19.699Z,0.63
2023-02-05T03:45:50.322Z,0.77
2023-02-05T03:48:17.385Z,0.67
2023-02-05T03:50:50.616Z,0.70
2023-02-05T03:53:17.658Z,0.53
2023-02-05T03:55:48.653Z,0.60
2023-02-05T03:58:19.076Z,0.80
2023-02-05T04:00:46.404Z,0.80
2023-02-05T04:03:13.780Z,0.77
2023-02-05T04:05:41.010Z,0.53
2023-02-05T04:08:08.108Z,0.50
2023-02-05T04:10:35.144Z,0.90
2023-02-05T04:13:02.314Z,0.77
2023-02-05T04:15:29.420Z,1.03
2023-02-05T04:17:57.918Z,0.70
2023-02-05T04:20:25.148Z,1.00
2023-02-05T04:22:52.280Z,0.80
2023-02-05T04:25:20.537Z,1.10
2023-02-05T04:27:47.623Z,0.70
2023-02-05T04:30:14.754Z,0.70
2023-02-05T04:32:41.813Z,0.97
2023-02-05T04:35:09.087Z,0.80
2023-02-05T04:37:36.139Z,1.00
2023-02-05T04:40:03.238Z,0.87
2023-02-05T04:42:30.281Z,0.70
2023-02-05T04:44:57.415Z,1.10
2023-02-05T04:47:24.539Z,0.97
2023-02-05T04:49:51.620Z,0.90
2023-02-05T04:52:18.699Z,0.90
2023-02-05T04:54:45.790Z,0.90
2023-02-05T04:57:12.817Z,1.10
2023-02-05T04:59:39.920Z,0.93
2023-02-05T05:02:07.057Z,0.87
2023-02-05T05:04:34.243Z,1.20
2023-02-05T05:07:01.302Z,0.90
2023-02-05T05:09:28.391Z,0.90
2023-02-05T05:11:58.726Z,0.70
2023-02-05T05:14:25.783Z,0.90
2023-02-05T05:16:52.839Z,1.00
2023-02-05T05:19:19.922Z,0.70
2023-02-05T05:21:47.001Z,1.10
2023-02-05T05:24:14.128Z,0.90
2023-02-05T05:26:43.822Z,0.87
2023-02-05T05:29:11.589Z,0.67
2023-02-05T05:31:38.688Z,0.93
2023-02-05T05:34:05.852Z,0.80
2023-02-05T05:36:33.050Z,0.90
2023-02-05T05:39:20.101Z,0.80
2023-02-05T05:42:05.955Z,0.60
2023-02-05T05:44:33.018Z,0.90
2023-02-05T05:47:00.116Z,1.00
2023-02-05T05:49:27.161Z,0.97
2023-02-05T05:51:54.225Z,1.00
2023-02-05T05:54:21.289Z,0.87
2023-02-05T05:56:49.565Z,0.70
2023-02-05T05:59:16.724Z,1.00
2023-02-05T06:01:43.811Z,0.90
2023-02-05T06:04:10.916Z,1.10
2023-02-05T06:06:38.228Z,0.90
2023-02-05T06:09:05.276Z,0.70
2023-02-05T06:11:32.332Z,0.70
2023-02-05T06:13:59.399Z,0.70
2023-02-05T06:16:26.476Z,0.73
2023-02-05T06:18:54.222Z,0.80
2023-02-05T06:21:21.310Z,0.57
2023-02-05T06:23:48.331Z,0.70
2023-02-05T06:26:15.855Z,0.77
2023-02-05T06:28:42.900Z,0.90
2023-02-05T06:31:10.251Z,0.70
2023-02-05T06:33:37.352Z,0.80
2023-02-05T06:36:07.493Z,0.83
2023-02-05T06:38:34.593Z,0.63
2023-02-05T06:41:01.614Z,0.97
2023-02-05T06:43:28.843Z,1.00
2023-02-05T06:45:55.911Z,1.07
2023-02-05T06:48:22.998Z,1.07
2023-02-05T06:50:50.069Z,0.97
2023-02-05T06:53:17.147Z,0.97
2023-02-05T06:55:44.247Z,1.10
2023-02-05T06:58:11.380Z,0.80
2023-02-05T07:00:38.594Z,1.17
2023-02-05T07:03:05.840Z,0.97
2023-02-05T07:05:34.507Z,0.90
2023-02-05T07:08:03.945Z,0.90
2023-02-05T07:10:31.193Z,0.90
2023-02-05T07:12:58.290Z,0.90
2023-02-05T07:15:25.365Z,1.50
2023-02-05T07:17:52.458Z,0.87
2023-02-05T07:20:19.530Z,1.07
2023-02-05T07:22:49.626Z,1.00
2023-02-05T07:25:16.696Z,0.90
2023-02-05T07:27:43.812Z,1.20
2023-02-05T07:30:11.329Z,0.87
2023-02-05T07:32:38.413Z,0.93
2023-02-05T07:35:05.612Z,1.10
2023-02-05T07:37:33.222Z,1.00
2023-02-05T07:40:00.367Z,1.17
2023-02-05T07:42:27.485Z,1.10
2023-02-05T07:44:54.751Z,1.03
2023-02-05T07:47:21.833Z,0.90
2023-02-05T07:49:48.956Z,1.10
2023-02-05T07:52:16.083Z,0.97
2023-02-05T07:54:43.208Z,1.13
2023-02-05T07:57:10.260Z,1.20
2023-02-05T07:59:37.346Z,1.00
2023-02-05T08:02:04.410Z,1.50
2023-02-05T08:04:31.545Z,1.13
2023-02-05T08:06:58.628Z,1.37
2023-02-05T08:09:25.701Z,1.00
2023-02-05T08:11:52.754Z,1.10
2023-02-05T08:14:19.958Z,1.10
2023-02-05T08:16:47.032Z,1.20
2023-02-05T08:19:15.443Z,1.20
2023-02-05T08:21:43.393Z,1.20
2023-02-05T08:24:10.622Z,1.20
2023-02-05T08:26:37.673Z,1.10
2023-02-05T08:29:04.992Z,1.23
2023-02-05T08:31:32.146Z,1.20
2023-02-05T08:34:00.116Z,1.03
2023-02-05T08:36:27.387Z,0.70
2023-02-05T08:38:54.465Z,1.17
2023-02-05T08:41:21.883Z,1.10
2023-02-05T08:43:49.926Z,0.70
2023-02-05T08:46:19.296Z,1.00
2023-02-05T08:48:46.873Z,1.00
2023-02-05T08:51:14.653Z,1.07
2023-02-05T08:53:41.737Z,1.00
2023-02-05T08:56:12.487Z,1.00
2023-02-05T08:58:39.825Z,0.80
2023-02-05T09:01:11.697Z,1.07
2023-02-05T09:03:39.102Z,0.87
2023-02-05T09:06:10.342Z,0.70
2023-02-05T09:08:37.633Z,0.57
2023-02-05T09:11:05.397Z,0.90
2023-02-05T09:13:32.604Z,0.70
2023-02-05T09:15:59.703Z,0.80
2023-02-05T09:18:26.870Z,0.70
2023-02-05T09:20:54.443Z,1.00
2023-02-05T09:23:21.530Z,1.10
2023-02-05T09:25:48.696Z,1.00
2023-02-05T09:28:15.850Z,0.70
2023-02-05T09:30:44.721Z,0.80
2023-02-05T09:33:12.873Z,0.90
2023-02-05T09:35:40.021Z,0.70
2023-02-05T09:38:07.227Z,0.90
2023-02-05T09:40:43.610Z,0.90
2023-02-05T09:43:13.801Z,0.70
2023-02-05T09:45:41.101Z,0.60
2023-02-05T09:48:23.769Z,0.93
2023-02-05T09:50:51.137Z,0.83
2023-02-05T09:53:20.228Z,0.83
2023-02-05T09:55:47.828Z,0.70
2023-02-05T09:58:37.857Z,0.87
2023-02-05T10:01:07.352Z,1.10
2023-02-05T10:03:37.559Z,1.00
2023-02-05T10:06:11.184Z,0.93
2023-02-05T10:08:38.199Z,0.80
2023-02-05T10:11:09.333Z,1.03
2023-02-05T10:13:37.548Z,0.97
2023-02-05T10:16:11.077Z,1.07
2023-02-05T10:18:48.965Z,1.03
2023-02-05T10:21:40.031Z,1.10
2023-02-05T10:24:17.056Z,0.87
2023-02-05T10:26:49.321Z,1.10
2023-02-05T10:29:22.276Z,1.27
2023-02-05T10:32:04.385Z,1.20
2023-02-05T10:34:37.374Z,1.03
2023-02-05T10:39:34.853Z,0.87
2023-02-05T10:42:07.877Z,0.63
2023-02-05T10:44:36.274Z,1.00
2023-02-05T10:47:26.559Z,0.57
2023-02-05T10:50:00.129Z,0.87
2023-02-05T10:52:27.478Z,0.90
2023-02-05T10:54:54.660Z,0.77
2023-02-05T10:57:23.203Z,1.50
2023-02-05T10:59:53.906Z,0.73
2023-02-05T11:02:22.083Z,0.80
2023-02-05T11:04:52.770Z,0.90
2023-02-05T11:07:40.074Z,0.77
2023-02-05T11:10:33.787Z,0.67
2023-02-05T11:13:21.254Z,0.50
2023-02-05T11:15:55.868Z,0.70
2023-02-05T11:18:30.669Z,0.97
2023-02-05T11:20:59.316Z,0.60
2023-02-05T11:23:27.231Z,1.00
2023-02-05T11:25:55.900Z,0.70
2023-02-05T11:28:26.993Z,0.70
2023-02-05T11:30:54.590Z,0.70
2023-02-05T11:33:21.951Z,0.70
2023-02-05T11:35:58.096Z,0.47
2023-02-05T11:38:32.850Z,0.60
2023-02-05T11:41:01.584Z,0.60
2023-02-05T11:43:28.899Z,0.53
2023-02-05T11:45:57.329Z,0.37
2023-02-05T11:48:44.718Z,0.73
2023-02-05T11:51:13.251Z,0.63
2023-02-05T11:53:45.681Z,0.80
2023-02-05T11:56:13.987Z,0.60
2023-02-05T11:58:41.133Z,0.57
2023-02-05T12:01:25.090Z,0.70
2023-02-05T12:04:24.659Z,0.70
2023-02-05T12:06:57.638Z,0.60
2023-02-05T12:09:27.294Z,0.77
2023-02-05T12:12:03.573Z,0.70
2023-02-05T12:14:45.221Z,0.80
2023-02-05T12:17:26.205Z,0.53
2023-02-05T12:20:05.388Z,0.80
2023-02-05T12:22:32.426Z,1.03
2023-02-05T12:25:18.280Z,0.80
2023-02-05T12:27:45.336Z,0.80
2023-02-05T12:30:12.426Z,0.80
2023-02-05T12:32:43.325Z,0.77
2023-02-05T12:35:16.518Z,0.83
2023-02-05T12:37:49.536Z,1.00
2023-02-05T12:40:35.238Z,0.63
2023-02-05T12:43:11.506Z,0.53
2023-02-05T12:45:38.689Z,0.80
2023-02-05T12:48:08.780Z,0.70
2023-02-05T12:50:41.689Z,0.80
2023-02-05T12:53:23.609Z,0.77
2023-02-05T12:56:09.592Z,0.53
2023-02-05T12:58:40.191Z,0.70
2023-02-05T13:01:09.456Z,0.70
2023-02-05T13:03:40.003Z,0.60
2023-02-05T13:06:13.735Z,0.70
2023-02-05T13:08:42.625Z,1.00
2023-02-05T13:11:15.416Z,1.10
2023-02-05T13:13:53.961Z,0.83
2023-02-05T13:16:22.908Z,0.73
2023-02-05T13:18:58.615Z,0.90
2023-02-05T13:21:45.002Z,1.00
2023-02-05T13:24:46.275Z,0.80
2023-02-05T13:27:50.814Z,0.97
2023-02-05T13:30:21.955Z,1.10
2023-02-05T13:32:51.699Z,0.80
2023-02-05T13:35:20.066Z,0.80
2023-02-05T13:37:53.034Z,0.90
2023-02-05T13:40:33.628Z,0.57
2023-02-05T13:43:19.824Z,0.70
2023-02-05T13:45:49.932Z,0.77
2023-02-05T13:48:35.544Z,0.80
2023-02-05T13:51:24.481Z,0.67
2023-02-05T13:54:10.508Z,1.00
2023-02-05T13:56:56.481Z,0.80
2023-02-05T13:59:41.525Z,0.80
2023-02-05T14:02:23.669Z,1.00
2023-02-05T14:04:54.220Z,0.80
2023-02-05T14:07:32.789Z,0.80
2023-02-05T14:10:02.474Z,0.70
2023-02-05T14:12:34.477Z,0.63
2023-02-05T14:15:20.073Z,0.90
2023-02-05T14:17:47.198Z,0.70
2023-02-05T14:20:26.779Z,0.77
2023-02-05T14:22:54.887Z,0.60
2023-02-05T14:25:42.517Z,0.90
2023-02-05T14:28:09.641Z,0.70
2023-02-05T14:30:45.319Z,0.80
2023-02-05T14:33:31.466Z,0.67
2023-02-05T14:36:20.756Z,0.53
2023-02-05T14:38:53.950Z,0.70
2023-02-05T14:41:24.197Z,0.77
2023-02-05T14:44:00.289Z,0.80
2023-02-05T14:46:36.420Z,0.70
2023-02-05T14:49:05.110Z,0.73
2023-02-05T14:51:35.683Z,1.10
2023-02-05T14:54:04.940Z,0.70
2023-02-05T14:56:39.350Z,0.70
2023-02-05T14:59:24.572Z,0.80
2023-02-05T15:01:54.331Z,0.80
2023-02-05T15:04:24.328Z,0.80
2023-02-05T15:06:51.956Z,0.90
2023-02-05T15:09:24.295Z,0.70
2023-02-05T15:11:51.353Z,0.63
2023-02-05T15:14:21.530Z,0.93
2023-02-05T15:17:06.700Z,2.83
2023-02-05T15:19:42.267Z,2.30
2023-02-05T15:22:24.834Z,13.90
2023-02-05T15:24:53.632Z,4.80
2023-02-05T15:27:23.813Z,0.90
2023-02-05T15:29:57.466Z,0.93
2023-02-05T15:32:33.339Z,1.37
2023-02-05T15:35:05.709Z,3.17
2023-02-05T15:37:47.013Z,1.73
2023-02-05T15:40:27.856Z,1.13
2023-02-05T15:42:56.580Z,1.50
2023-02-05T15:45:26.601Z,1.53
2023-02-05T15:48:03.786Z,1.80
2023-02-05T15:50:31.566Z,1.00
2023-02-05T15:52:59.197Z,1.50
2023-02-05T15:55:29.003Z,1.47
2023-02-05T15:58:01.449Z,2.20
2023-02-05T16:00:30.838Z,2.10
2023-02-05T16:02:59.963Z,1.63
2023-02-05T16:05:28.414Z,1.90
2023-02-05T16:07:57.375Z,1.87
2023-02-05T16:10:28.661Z,1.57
2023-02-05T16:13:04.739Z,1.97
2023-02-05T16:15:35.585Z,1.73
2023-02-05T16:18:05.611Z,2.07
2023-02-05T16:20:36.357Z,1.87
2023-02-05T16:23:06.718Z,1.77
2023-02-05T16:25:37.129Z,1.50
2023-02-05T16:28:07.902Z,1.60
2023-02-05T16:30:40.475Z,1.43
2023-02-05T16:33:08.796Z,1.40
2023-02-05T16:35:38.004Z,1.50
2023-02-05T16:38:09.091Z,2.00
2023-02-05T16:40:43.047Z,2.13
2023-02-05T16:43:28.680Z,2.33
2023-02-05T16:46:04.841Z,1.97
2023-02-05T16:48:32.126Z,1.60
2023-02-05T16:50:59.852Z,1.87
2023-02-05T16:53:28.122Z,1.83
2023-02-05T16:56:01.904Z,1.77
2023-02-05T16:58:43.518Z,1.97
2023-02-05T17:01:10.777Z,2.07
2023-02-05T17:03:41.851Z,1.80
2023-02-05T17:06:13.496Z,2.00
2023-02-05T17:08:40.859Z,2.20
2023-02-05T17:11:09.154Z,2.53
2023-02-05T17:13:38.019Z,3.20
2023-02-05T17:16:20.969Z,2.60
2023-02-05T17:18:55.249Z,2.67
2023-02-05T17:21:35.476Z,2.70
2023-02-05T17:24:04.986Z,2.30
2023-02-05T17:26:34.442Z,2.50
2023-02-05T17:29:03.615Z,2.20
2023-02-05T17:31:31.683Z,2.30
2023-02-05T17:33:59.126Z,2.40
2023-02-05T17:36:26.408Z,2.10
2023-02-05T17:38:53.832Z,3.80
2023-02-05T17:41:41.377Z,4.00
2023-02-05T17:44:10.966Z,3.60
2023-02-05T17:46:38.032Z,3.27
2023-02-05T17:49:05.075Z,3.50
2023-02-05T17:51:32.162Z,3.57
2023-02-05T17:53:59.452Z,4.23
2023-02-05T17:56:26.594Z,5.40
2023-02-05T17:58:55.539Z,5.57
2023-02-05T18:01:22.869Z,4.37
2023-02-05T18:03:50.287Z,5.03
2023-02-05T18:06:17.972Z,3.50
2023-02-05T18:08:45.044Z,4.30
2023-02-05T18:11:12.129Z,3.00
2023-02-05T18:13:39.232Z,3.10
2023-02-05T18:16:06.641Z,3.50
2023-02-05T18:18:35.520Z,3.80
2023-02-05T18:21:02.796Z,3.30
2023-02-05T18:23:30.037Z,3.20
2023-02-05T18:25:57.921Z,2.97
2023-02-05T18:28:25.159Z,3.10
2023-02-05T18:31:06.382Z,3.40
2023-02-05T18:33:33.743Z,3.20
2023-02-05T18:36:08.212Z,3.50
2023-02-05T18:38:36.112Z,3.40
2023-02-05T18:41:07.759Z,3.00
2023-02-05T18:43:36.247Z,3.00
2023-02-05T18:46:09.992Z,3.30
2023-02-05T18:48:37.787Z,2.90
2023-02-05T18:51:05.609Z,2.73
2023-02-05T18:53:33.480Z,2.67
2023-02-05T18:56:01.661Z,3.10
2023-02-05T18:58:28.805Z,2.83
2023-02-05T19:00:56.042Z,2.90
2023-02-05T19:03:23.417Z,3.40
2023-02-05T19:05:50.487Z,3.17
2023-02-05T19:08:17.608Z,3.57
2023-02-05T19:10:44.682Z,3.03
2023-02-05T19:13:12.034Z,3.40
2023-02-05T19:15:39.197Z,3.87
2023-02-05T19:18:07.388Z,3.50
2023-02-05T19:20:35.190Z,3.40
2023-02-05T19:23:02.435Z,3.40
2023-02-05T19:25:29.902Z,3.40
2023-02-05T19:27:57.006Z,3.20
2023-02-05T19:30:24.168Z,3.13
2023-02-05T19:32:51.281Z,2.80
2023-02-05T19:35:18.462Z,2.73
2023-02-05T19:37:45.525Z,3.30
2023-02-05T19:40:13.137Z,3.63
2023-02-05T19:42:41.455Z,3.53
2023-02-05T19:45:08.791Z,2.80
2023-02-05T19:47:35.877Z,2.97
2023-02-05T19:50:02.946Z,3.30
2023-02-05T19:52:30.068Z,3.47
2023-02-05T19:54:57.136Z,3.73
2023-02-05T19:57:24.949Z,3.40
2023-02-05T19:59:52.079Z,3.40
2023-02-05T20:02:19.318Z,3.50
2023-02-05T20:04:46.513Z,3.60
2023-02-05T20:07:13.632Z,3.07
2023-02-05T20:09:40.697Z,3.07
2023-02-05T20:12:09.017Z,3.70
2023-02-05T20:14:36.059Z,3.73
2023-02-05T20:17:03.178Z,3.70
2023-02-05T20:19:30.230Z,5.23
2023-02-05T20:21:57.297Z,6.30
2023-02-05T20:24:24.326Z,4.63
2023-02-05T20:26:52.928Z,4.60
2023-02-05T20:29:38.900Z,4.30
2023-02-05T20:32:06.711Z,3.60
2023-02-05T20:34:36.014Z,3.40
2023-02-05T20:37:04.855Z,3.73
2023-02-05T20:39:34.418Z,3.23
2023-02-05T20:42:01.566Z,12.47
2023-02-05T20:44:31.156Z,3.87
2023-02-05T20:46:58.326Z,4.10
2023-02-05T20:49:25.670Z,4.43
2023-02-05T20:51:53.944Z,5.07
2023-02-05T20:54:21.423Z,4.00
2023-02-05T20:56:50.602Z,3.97
2023-02-05T20:59:17.702Z,4.17
2023-02-05T21:01:44.785Z,4.60
2023-02-05T21:04:12.728Z,3.77
2023-02-05T21:06:40.692Z,4.47
2023-02-05T21:09:08.413Z,4.73
2023-02-05T21:11:36.010Z,4.30
2023-02-05T21:14:06.405Z,4.07
2023-02-05T21:16:35.505Z,4.00
2023-02-05T21:19:03.934Z,3.80
2023-02-05T21:21:32.171Z,3.73
2023-02-05T21:24:00.572Z,4.50
2023-02-05T21:26:32.508Z,4.47
2023-02-05T21:29:00.750Z,4.63
2023-02-05T21:31:35.206Z,4.40
2023-02-05T21:34:02.692Z,4.20
2023-02-05T21:36:29.991Z,4.20
2023-02-05T21:38:57.133Z,4.17
2023-02-05T21:41:24.365Z,4.17
2023-02-05T21:43:55.704Z,3.80
2023-02-05T21:46:23.220Z,4.00
2023-02-05T21:48:51.216Z,3.80
2023-02-05T21:51:19.309Z,3.90
2023-02-05T21:53:46.563Z,3.90
2023-02-05T21:56:15.286Z,3.77
2023-02-05T21:58:42.402Z,3.73
2023-02-05T22:01:12.972Z,3.77
2023-02-05T22:03:40.640Z,4.00
2023-02-05T22:06:08.328Z,4.03
2023-02-05T22:08:36.382Z,3.83
2023-02-05T22:11:04.606Z,3.83
2023-02-05T22:13:33.054Z,3.50
2023-02-05T22:16:03.854Z,3.60
2023-02-05T22:18:31.040Z,3.47
2023-02-05T22:20:58.132Z,3.57
2023-02-05T22:23:25.186Z,3.57
2023-02-05T22:25:52.351Z,3.20
2023-02-05T22:28:19.504Z,3.70
2023-02-05T22:30:46.620Z,3.87
2023-02-05T22:33:13.727Z,3.27
2023-02-05T22:35:40.760Z,3.97
2023-02-05T22:38:07.820Z,3.80
2023-02-05T22:40:34.921Z,3.50
2023-02-05T22:43:01.960Z,3.53
2023-02-05T22:45:31.260Z,3.80
2023-02-05T22:47:58.727Z,3.80
2023-02-05T22:50:26.083Z,3.37
2023-02-05T22:52:53.154Z,3.57
2023-02-05T22:55:20.253Z,4.43
2023-02-05T22:57:47.368Z,4.23
2023-02-05T23:00:14.648Z,3.90
2023-02-05T23:02:41.703Z,3.70
2023-02-05T23:05:08.859Z,3.67
2023-02-05T23:07:35.918Z,3.93
2023-02-05T23:10:02.970Z,4.13
2023-02-05T23:12:30.069Z,3.93
2023-02-05T23:14:57.116Z,3.90
2023-02-05T23:17:24.219Z,3.67
2023-02-05T23:19:51.973Z,4.30
2023-02-05T23:22:19.020Z,4.20
2023-02-05T23:24:46.215Z,4.20
2023-02-05T23:27:13.313Z,4.20
2023-02-05T23:29:40.421Z,4.30
2023-02-05T23:32:09.138Z,4.20
2023-02-05T23:34:36.281Z,3.97
2023-02-05T23:37:03.321Z,3.93
2023-02-05T23:39:30.400Z,4.60
2023-02-05T23:41:57.453Z,4.60
2023-02-05T23:44:24.570Z,4.40
2023-02-05T23:46:51.931Z,4.00
2023-02-05T23:49:23.195Z,4.17
2023-02-05T23:51:51.222Z,4.10
2023-02-05T23:54:18.336Z,4.20
2023-02-05T23:56:45.719Z,3.77
2023-02-05T23:59:13.280Z,4.00
